sensor_id;sensor_type;location;lat;lon;timestamp;P1;durP1;ratioP1;P2;durP2;ratioP2
8337;SDS011;4206;48.634;9.516;2023-09-12T00:02:15;10.30;;;6.43;;
8337;SDS011;4206;48.634;9.516;2023-09-12T00:04:42;9.73;;;6.80;;
8337;SDS011;4206;48.634;9.516;2023-09-12T00:07:09;6.90;;;5.90;;
8337;SDS011;4206;48.634;9.516;2023-09-12T00:09:36;9.13;;;5.83;;
8337;SDS011;4206;48.634;9.516;2023-09-12T00:12:03;11.90;;;6.90;;
8337;SDS011;4206;48.634;9.516;2023-09-12T00:14:31;9.23;;;5.83;;
8337;SDS011;4206;48.634;9.516;2023-09-12T00:16:58;13.40;;;6.57;;
8337;SDS011;4206;48.634;9.516;2023-09-12T00:19:25;11.03;;;6.33;;
8337;SDS011;4206;48.634;9.516;2023-09-12T00:21:51;13.80;;;5.87;;
8337;SDS011;4206;48.634;9.516;2023-09-12T00:24:19;10.67;;;5.87;;
8337;SDS011;4206;48.634;9.516;2023-09-12T00:26:46;8.40;;;5.40;;
8337;SDS011;4206;48.634;9.516;2023-09-12T00:29:13;12.17;;;6.23;;
8337;SDS011;4206;48.634;9.516;2023-09-12T00:31:40;10.30;;;6.43;;
8337;SDS011;4206;48.634;9.516;2023-09-12T00:34:11;11.23;;;6.60;;
8337;SDS011;4206;48.634;9.516;2023-09-12T00:36:44;11.87;;;7.27;;
8337;SDS011;4206;48.634;9.516;2023-09-12T00:39:10;11.83;;;7.20;;
8337;SDS011;4206;48.634;9.516;2023-09-12T00:41:37;10.83;;;6.53;;
8337;SDS011;4206;48.634;9.516;2023-09-12T00:44:04;7.37;;;5.47;;
8337;SDS011;4206;48.634;9.516;2023-09-12T00:46:32;8.20;;;6.13;;
8337;SDS011;4206;48.634;9.516;2023-09-12T00:49:00;8.50;;;6.30;;
8337;SDS011;4206;48.634;9.516;2023-09-12T00:51:30;11.60;;;6.80;;
8337;SDS011;4206;48.634;9.516;2023-09-12T00:53:59;13.33;;;5.70;;
8337;SDS011;4206;48.634;9.516;2023-09-12T00:56:26;14.17;;;6.47;;
8337;SDS011;4206;48.634;9.516;2023-09-12T00:58:54;11.70;;;6.70;;
8337;SDS011;4206;48.634;9.516;2023-09-12T01:01:21;12.03;;;6.40;;
8337;SDS011;4206;48.634;9.516;2023-09-12T01:03:50;7.90;;;5.60;;
8337;SDS011;4206;48.634;9.516;2023-09-12T01:06:18;8.50;;;5.20;;
8337;SDS011;4206;48.634;9.516;2023-09-12T01:08:48;10.73;;;6.57;;
8337;SDS011;4206;48.634;9.516;2023-09-12T01:11:15;9.00;;;6.50;;
8337;SDS011;4206;48.634;9.516;2023-09-12T01:13:43;12.27;;;5.97;;
8337;SDS011;4206;48.634;9.516;2023-09-12T01:16:10;7.87;;;5.60;;
8337;SDS011;4206;48.634;9.516;2023-09-12T01:18:37;9.57;;;5.50;;
8337;SDS011;4206;48.634;9.516;2023-09-12T01:29:41;13.20;;;6.80;;
8337;SDS011;4206;48.634;9.516;2023-09-12T01:32:10;8.40;;;6.00;;
8337;SDS011;4206;48.634;9.516;2023-09-12T01:34:38;11.07;;;6.60;;
8337;SDS011;4206;48.634;9.516;2023-09-12T01:37:05;8.80;;;6.43;;
8337;SDS011;4206;48.634;9.516;2023-09-12T01:39:32;8.97;;;7.57;;
8337;SDS011;4206;48.634;9.516;2023-09-12T01:41:59;12.17;;;7.03;;
8337;SDS011;4206;48.634;9.516;2023-09-12T01:44:27;16.90;;;7.83;;
8337;SDS011;4206;48.634;9.516;2023-09-12T01:46:55;11.40;;;6.70;;
8337;SDS011;4206;48.634;9.516;2023-09-12T01:49:27;9.80;;;6.50;;
8337;SDS011;4206;48.634;9.516;2023-09-12T01:51:54;9.70;;;6.77;;
8337;SDS011;4206;48.634;9.516;2023-09-12T01:54:22;9.23;;;6.07;;
8337;SDS011;4206;48.634;9.516;2023-09-12T01:56:49;10.17;;;6.40;;
8337;SDS011;4206;48.634;9.516;2023-09-12T01:59:17;10.10;;;6.50;;
8337;SDS011;4206;48.634;9.516;2023-09-12T02:01:45;9.00;;;7.07;;
8337;SDS011;4206;48.634;9.516;2023-09-12T02:04:12;12.80;;;7.00;;
8337;SDS011;4206;48.634;9.516;2023-09-12T02:06:38;11.60;;;6.50;;
8337;SDS011;4206;48.634;9.516;2023-09-12T02:09:05;12.30;;;7.40;;
8337;SDS011;4206;48.634;9.516;2023-09-12T02:11:32;11.93;;;6.07;;
8337;SDS011;4206;48.634;9.516;2023-09-12T02:13:59;8.87;;;6.50;;
8337;SDS011;4206;48.634;9.516;2023-09-12T02:16:26;10.90;;;7.43;;
8337;SDS011;4206;48.634;9.516;2023-09-12T02:18:53;8.77;;;6.50;;
8337;SDS011;4206;48.634;9.516;2023-09-12T02:21:20;9.37;;;6.60;;
8337;SDS011;4206;48.634;9.516;2023-09-12T02:23:47;12.60;;;6.63;;
8337;SDS011;4206;48.634;9.516;2023-09-12T02:26:14;9.07;;;6.43;;
8337;SDS011;4206;48.634;9.516;2023-09-12T02:28:41;14.63;;;7.13;;
8337;SDS011;4206;48.634;9.516;2023-09-12T02:31:09;13.50;;;6.87;;
8337;SDS011;4206;48.634;9.516;2023-09-12T02:33:38;12.27;;;6.97;;
8337;SDS011;4206;48.634;9.516;2023-09-12T02:36:05;10.30;;;6.40;;
8337;SDS011;4206;48.634;9.516;2023-09-12T02:38:33;14.07;;;7.43;;
8337;SDS011;4206;48.634;9.516;2023-09-12T02:41:00;12.73;;;6.63;;
8337;SDS011;4206;48.634;9.516;2023-09-12T02:43:28;14.20;;;7.67;;
8337;SDS011;4206;48.634;9.516;2023-09-12T02:45:56;8.60;;;6.40;;
8337;SDS011;4206;48.634;9.516;2023-09-12T02:48:23;10.93;;;6.80;;
8337;SDS011;4206;48.634;9.516;2023-09-12T02:50:50;8.00;;;6.10;;
8337;SDS011;4206;48.634;9.516;2023-09-12T02:53:17;10.03;;;6.17;;
8337;SDS011;4206;48.634;9.516;2023-09-12T02:55:44;8.37;;;6.60;;
8337;SDS011;4206;48.634;9.516;2023-09-12T02:58:11;8.23;;;6.73;;
8337;SDS011;4206;48.634;9.516;2023-09-12T03:00:38;9.87;;;6.30;;
8337;SDS011;4206;48.634;9.516;2023-09-12T03:03:07;12.33;;;7.17;;
8337;SDS011;4206;48.634;9.516;2023-09-12T03:05:35;17.27;;;6.53;;
8337;SDS011;4206;48.634;9.516;2023-09-12T03:08:02;17.00;;;6.53;;
8337;SDS011;4206;48.634;9.516;2023-09-12T03:10:30;18.63;;;6.90;;
8337;SDS011;4206;48.634;9.516;2023-09-12T03:12:57;11.17;;;6.83;;
8337;SDS011;4206;48.634;9.516;2023-09-12T03:15:24;8.80;;;6.63;;
8337;SDS011;4206;48.634;9.516;2023-09-12T03:17:51;10.47;;;7.30;;
8337;SDS011;4206;48.634;9.516;2023-09-12T03:20:18;14.37;;;7.97;;
8337;SDS011;4206;48.634;9.516;2023-09-12T03:22:45;13.00;;;7.50;;
8337;SDS011;4206;48.634;9.516;2023-09-12T03:25:12;13.00;;;7.13;;
8337;SDS011;4206;48.634;9.516;2023-09-12T03:27:39;15.47;;;8.67;;
8337;SDS011;4206;48.634;9.516;2023-09-12T03:30:06;17.07;;;8.10;;
8337;SDS011;4206;48.634;9.516;2023-09-12T03:32:34;10.03;;;7.60;;
8337;SDS011;4206;48.634;9.516;2023-09-12T03:35:01;14.57;;;7.07;;
8337;SDS011;4206;48.634;9.516;2023-09-12T03:37:28;8.83;;;7.00;;
8337;SDS011;4206;48.634;9.516;2023-09-12T03:39:55;9.60;;;6.37;;
8337;SDS011;4206;48.634;9.516;2023-09-12T03:42:22;14.40;;;7.33;;
8337;SDS011;4206;48.634;9.516;2023-09-12T03:44:57;8.60;;;6.97;;
8337;SDS011;4206;48.634;9.516;2023-09-12T03:47:24;10.53;;;6.87;;
8337;SDS011;4206;48.634;9.516;2023-09-12T03:49:51;13.07;;;6.80;;
8337;SDS011;4206;48.634;9.516;2023-09-12T03:52:17;12.90;;;7.17;;
8337;SDS011;4206;48.634;9.516;2023-09-12T03:54:44;14.20;;;7.20;;
8337;SDS011;4206;48.634;9.516;2023-09-12T03:57:11;9.67;;;6.73;;
8337;SDS011;4206;48.634;9.516;2023-09-12T03:59:38;14.93;;;7.70;;
8337;SDS011;4206;48.634;9.516;2023-09-12T04:02:05;12.43;;;6.83;;
8337;SDS011;4206;48.634;9.516;2023-09-12T04:04:32;8.50;;;6.43;;
8337;SDS011;4206;48.634;9.516;2023-09-12T04:06:59;9.67;;;7.20;;
8337;SDS011;4206;48.634;9.516;2023-09-12T04:09:27;9.63;;;6.40;;
8337;SDS011;4206;48.634;9.516;2023-09-12T04:11:54;15.80;;;7.87;;
8337;SDS011;4206;48.634;9.516;2023-09-12T04:14:21;12.73;;;7.67;;
8337;SDS011;4206;48.634;9.516;2023-09-12T04:16:48;16.00;;;6.90;;
8337;SDS011;4206;48.634;9.516;2023-09-12T04:19:15;10.20;;;6.90;;
8337;SDS011;4206;48.634;9.516;2023-09-12T04:21:42;18.40;;;7.30;;
8337;SDS011;4206;48.634;9.516;2023-09-12T04:24:09;10.30;;;7.10;;
8337;SDS011;4206;48.634;9.516;2023-09-12T04:26:37;13.47;;;7.20;;
8337;SDS011;4206;48.634;9.516;2023-09-12T04:29:04;11.60;;;7.00;;
8337;SDS011;4206;48.634;9.516;2023-09-12T04:31:30;9.80;;;7.10;;
8337;SDS011;4206;48.634;9.516;2023-09-12T04:33:57;11.20;;;6.87;;
8337;SDS011;4206;48.634;9.516;2023-09-12T04:36:24;12.73;;;7.87;;
8337;SDS011;4206;48.634;9.516;2023-09-12T04:38:51;13.70;;;7.40;;
8337;SDS011;4206;48.634;9.516;2023-09-12T04:41:18;8.27;;;6.97;;
8337;SDS011;4206;48.634;9.516;2023-09-12T04:43:45;11.13;;;7.00;;
8337;SDS011;4206;48.634;9.516;2023-09-12T04:46:12;10.40;;;7.10;;
8337;SDS011;4206;48.634;9.516;2023-09-12T04:48:39;11.00;;;8.30;;
8337;SDS011;4206;48.634;9.516;2023-09-12T04:51:07;10.53;;;6.90;;
8337;SDS011;4206;48.634;9.516;2023-09-12T04:53:34;9.60;;;6.63;;
8337;SDS011;4206;48.634;9.516;2023-09-12T04:56:01;10.30;;;6.70;;
8337;SDS011;4206;48.634;9.516;2023-09-12T04:58:28;12.93;;;7.00;;
8337;SDS011;4206;48.634;9.516;2023-09-12T05:00:55;13.80;;;7.50;;
8337;SDS011;4206;48.634;9.516;2023-09-12T05:03:23;12.93;;;7.40;;
8337;SDS011;4206;48.634;9.516;2023-09-12T05:05:53;9.30;;;7.13;;
8337;SDS011;4206;48.634;9.516;2023-09-12T05:08:20;11.67;;;6.37;;
8337;SDS011;4206;48.634;9.516;2023-09-12T05:10:47;11.20;;;6.80;;
8337;SDS011;4206;48.634;9.516;2023-09-12T05:13:14;13.33;;;7.23;;
8337;SDS011;4206;48.634;9.516;2023-09-12T05:15:41;15.60;;;7.50;;
8337;SDS011;4206;48.634;9.516;2023-09-12T05:18:08;13.57;;;7.10;;
8337;SDS011;4206;48.634;9.516;2023-09-12T05:20:35;9.10;;;6.30;;
8337;SDS011;4206;48.634;9.516;2023-09-12T05:23:02;8.27;;;6.30;;
8337;SDS011;4206;48.634;9.516;2023-09-12T05:25:30;17.63;;;7.60;;
8337;SDS011;4206;48.634;9.516;2023-09-12T05:27:56;12.00;;;7.50;;
8337;SDS011;4206;48.634;9.516;2023-09-12T05:30:23;12.73;;;7.10;;
8337;SDS011;4206;48.634;9.516;2023-09-12T05:32:51;9.03;;;6.87;;
8337;SDS011;4206;48.634;9.516;2023-09-12T05:35:18;9.57;;;6.80;;
8337;SDS011;4206;48.634;9.516;2023-09-12T05:37:48;12.97;;;7.70;;
8337;SDS011;4206;48.634;9.516;2023-09-12T05:40:15;9.90;;;7.60;;
8337;SDS011;4206;48.634;9.516;2023-09-12T05:42:42;15.23;;;8.00;;
8337;SDS011;4206;48.634;9.516;2023-09-12T05:45:09;10.50;;;7.00;;
8337;SDS011;4206;48.634;9.516;2023-09-12T05:47:36;19.43;;;8.50;;
8337;SDS011;4206;48.634;9.516;2023-09-12T05:50:03;11.73;;;6.30;;
8337;SDS011;4206;48.634;9.516;2023-09-12T05:52:33;14.73;;;7.80;;
8337;SDS011;4206;48.634;9.516;2023-09-12T05:55:00;19.90;;;8.30;;
8337;SDS011;4206;48.634;9.516;2023-09-12T05:57:27;14.53;;;7.13;;
8337;SDS011;4206;48.634;9.516;2023-09-12T05:59:54;18.67;;;7.67;;
8337;SDS011;4206;48.634;9.516;2023-09-12T06:02:21;10.57;;;7.47;;
8337;SDS011;4206;48.634;9.516;2023-09-12T06:04:47;11.70;;;7.73;;
8337;SDS011;4206;48.634;9.516;2023-09-12T06:07:14;13.87;;;8.30;;
8337;SDS011;4206;48.634;9.516;2023-09-12T06:09:41;17.07;;;7.93;;
8337;SDS011;4206;48.634;9.516;2023-09-12T06:12:08;16.57;;;8.37;;
8337;SDS011;4206;48.634;9.516;2023-09-12T06:14:35;14.87;;;8.23;;
8337;SDS011;4206;48.634;9.516;2023-09-12T06:17:02;17.43;;;7.90;;
8337;SDS011;4206;48.634;9.516;2023-09-12T06:19:29;13.47;;;7.70;;
8337;SDS011;4206;48.634;9.516;2023-09-12T06:21:56;12.53;;;7.10;;
8337;SDS011;4206;48.634;9.516;2023-09-12T06:24:25;13.73;;;7.70;;
8337;SDS011;4206;48.634;9.516;2023-09-12T06:26:52;13.50;;;7.83;;
8337;SDS011;4206;48.634;9.516;2023-09-12T06:29:19;18.40;;;8.40;;
8337;SDS011;4206;48.634;9.516;2023-09-12T06:31:46;17.57;;;8.77;;
8337;SDS011;4206;48.634;9.516;2023-09-12T06:34:14;13.90;;;8.10;;
8337;SDS011;4206;48.634;9.516;2023-09-12T06:36:41;13.37;;;7.90;;
8337;SDS011;4206;48.634;9.516;2023-09-12T06:39:11;12.53;;;7.70;;
8337;SDS011;4206;48.634;9.516;2023-09-12T06:41:38;12.23;;;7.67;;
8337;SDS011;4206;48.634;9.516;2023-09-12T06:44:05;16.27;;;8.27;;
8337;SDS011;4206;48.634;9.516;2023-09-12T06:46:33;13.03;;;9.00;;
8337;SDS011;4206;48.634;9.516;2023-09-12T06:49:03;14.23;;;8.30;;
8337;SDS011;4206;48.634;9.516;2023-09-12T06:51:30;11.93;;;7.63;;
8337;SDS011;4206;48.634;9.516;2023-09-12T06:54:03;14.37;;;7.63;;
8337;SDS011;4206;48.634;9.516;2023-09-12T06:56:30;16.13;;;8.10;;
8337;SDS011;4206;48.634;9.516;2023-09-12T06:58:58;15.23;;;7.90;;
8337;SDS011;4206;48.634;9.516;2023-09-12T07:01:25;12.90;;;7.67;;
8337;SDS011;4206;48.634;9.516;2023-09-12T07:03:52;12.63;;;8.20;;
8337;SDS011;4206;48.634;9.516;2023-09-12T07:06:21;10.30;;;7.00;;
8337;SDS011;4206;48.634;9.516;2023-09-12T07:08:49;14.23;;;7.53;;
8337;SDS011;4206;48.634;9.516;2023-09-12T07:11:17;8.90;;;7.00;;
8337;SDS011;4206;48.634;9.516;2023-09-12T07:13:45;11.07;;;7.80;;
8337;SDS011;4206;48.634;9.516;2023-09-12T07:16:12;12.30;;;7.40;;
8337;SDS011;4206;48.634;9.516;2023-09-12T07:18:39;13.70;;;7.13;;
8337;SDS011;4206;48.634;9.516;2023-09-12T07:21:07;13.07;;;8.20;;
8337;SDS011;4206;48.634;9.516;2023-09-12T07:23:34;16.27;;;8.90;;
8337;SDS011;4206;48.634;9.516;2023-09-12T07:26:01;15.60;;;7.23;;
8337;SDS011;4206;48.634;9.516;2023-09-12T07:28:29;12.97;;;8.03;;
8337;SDS011;4206;48.634;9.516;2023-09-12T07:30:57;11.30;;;7.50;;
8337;SDS011;4206;48.634;9.516;2023-09-12T07:33:24;13.20;;;7.67;;
8337;SDS011;4206;48.634;9.516;2023-09-12T07:35:51;11.50;;;6.90;;
8337;SDS011;4206;48.634;9.516;2023-09-12T07:38:20;12.23;;;7.50;;
8337;SDS011;4206;48.634;9.516;2023-09-12T07:40:47;11.53;;;7.67;;
8337;SDS011;4206;48.634;9.516;2023-09-12T07:43:15;14.87;;;7.13;;
8337;SDS011;4206;48.634;9.516;2023-09-12T07:45:42;8.90;;;7.13;;
8337;SDS011;4206;48.634;9.516;2023-09-12T07:48:09;21.63;;;8.10;;
8337;SDS011;4206;48.634;9.516;2023-09-12T07:50:38;9.63;;;7.10;;
8337;SDS011;4206;48.634;9.516;2023-09-12T07:53:05;13.60;;;7.50;;
8337;SDS011;4206;48.634;9.516;2023-09-12T07:55:36;13.10;;;7.07;;
8337;SDS011;4206;48.634;9.516;2023-09-12T07:58:13;17.50;;;7.90;;
8337;SDS011;4206;48.634;9.516;2023-09-12T08:00:41;14.10;;;7.47;;
8337;SDS011;4206;48.634;9.516;2023-09-12T08:03:08;14.60;;;7.20;;
8337;SDS011;4206;48.634;9.516;2023-09-12T08:05:35;15.23;;;7.33;;
8337;SDS011;4206;48.634;9.516;2023-09-12T08:08:02;11.17;;;7.90;;
8337;SDS011;4206;48.634;9.516;2023-09-12T08:10:30;14.47;;;7.00;;
8337;SDS011;4206;48.634;9.516;2023-09-12T08:12:57;11.90;;;6.63;;
8337;SDS011;4206;48.634;9.516;2023-09-12T08:15:29;13.47;;;7.47;;
8337;SDS011;4206;48.634;9.516;2023-09-12T08:17:57;12.50;;;7.33;;
8337;SDS011;4206;48.634;9.516;2023-09-12T08:20:24;14.27;;;7.80;;
8337;SDS011;4206;48.634;9.516;2023-09-12T08:22:51;13.32;;;7.00;;
8337;SDS011;4206;48.634;9.516;2023-09-12T08:25:18;11.90;;;7.55;;
8337;SDS011;4206;48.634;9.516;2023-09-12T08:27:45;13.50;;;6.93;;
8337;SDS011;4206;48.634;9.516;2023-09-12T08:30:13;12.93;;;7.00;;
8337;SDS011;4206;48.634;9.516;2023-09-12T08:32:40;14.02;;;7.03;;
8337;SDS011;4206;48.634;9.516;2023-09-12T08:35:11;13.27;;;6.30;;
8337;SDS011;4206;48.634;9.516;2023-09-12T08:37:41;9.73;;;6.90;;
8337;SDS011;4206;48.634;9.516;2023-09-12T08:40:09;21.50;;;7.25;;
8337;SDS011;4206;48.634;9.516;2023-09-12T08:42:38;10.15;;;6.75;;
8337;SDS011;4206;48.634;9.516;2023-09-12T08:45:11;12.52;;;7.93;;
8337;SDS011;4206;48.634;9.516;2023-09-12T08:47:42;13.77;;;7.63;;
8337;SDS011;4206;48.634;9.516;2023-09-12T08:50:13;10.65;;;6.78;;
8337;SDS011;4206;48.634;9.516;2023-09-12T08:52:41;12.02;;;7.53;;
8337;SDS011;4206;48.634;9.516;2023-09-12T08:55:29;9.77;;;6.80;;
8337;SDS011;4206;48.634;9.516;2023-09-12T08:57:59;15.18;;;7.78;;
8337;SDS011;4206;48.634;9.516;2023-09-12T09:00:29;9.20;;;7.00;;
8337;SDS011;4206;48.634;9.516;2023-09-12T09:02:57;16.52;;;7.30;;
8337;SDS011;4206;48.634;9.516;2023-09-12T09:05:25;10.45;;;7.60;;
8337;SDS011;4206;48.634;9.516;2023-09-12T09:07:55;16.58;;;7.68;;
8337;SDS011;4206;48.634;9.516;2023-09-12T09:10:23;16.38;;;8.07;;
8337;SDS011;4206;48.634;9.516;2023-09-12T09:13:07;10.35;;;6.70;;
8337;SDS011;4206;48.634;9.516;2023-09-12T09:15:36;11.32;;;6.00;;
8337;SDS011;4206;48.634;9.516;2023-09-12T09:18:08;11.43;;;6.93;;
8337;SDS011;4206;48.634;9.516;2023-09-12T09:20:37;11.15;;;7.20;;
8337;SDS011;4206;48.634;9.516;2023-09-12T09:23:06;9.52;;;6.60;;
8337;SDS011;4206;48.634;9.516;2023-09-12T09:25:40;9.77;;;7.13;;
8337;SDS011;4206;48.634;9.516;2023-09-12T09:28:18;12.55;;;6.68;;
8337;SDS011;4206;48.634;9.516;2023-09-12T09:30:48;9.93;;;7.15;;
8337;SDS011;4206;48.634;9.516;2023-09-12T09:33:18;12.30;;;6.90;;
8337;SDS011;4206;48.634;9.516;2023-09-12T09:35:46;8.50;;;6.13;;
8337;SDS011;4206;48.634;9.516;2023-09-12T09:38:16;10.02;;;6.40;;
8337;SDS011;4206;48.634;9.516;2023-09-12T09:40:46;14.55;;;6.70;;
8337;SDS011;4206;48.634;9.516;2023-09-12T09:43:19;10.35;;;7.53;;
8337;SDS011;4206;48.634;9.516;2023-09-12T09:45:47;12.68;;;7.20;;
8337;SDS011;4206;48.634;9.516;2023-09-12T09:48:22;9.70;;;6.53;;
8337;SDS011;4206;48.634;9.516;2023-09-12T09:50:59;16.33;;;10.30;;
8337;SDS011;4206;48.634;9.516;2023-09-12T09:53:29;15.98;;;7.88;;
8337;SDS011;4206;48.634;9.516;2023-09-12T09:58:45;16.33;;;7.72;;
8337;SDS011;4206;48.634;9.516;2023-09-12T10:01:21;15.80;;;7.50;;
8337;SDS011;4206;48.634;9.516;2023-09-12T10:03:58;14.70;;;8.52;;
8337;SDS011;4206;48.634;9.516;2023-09-12T10:06:27;9.27;;;7.25;;
8337;SDS011;4206;48.634;9.516;2023-09-12T10:08:56;9.15;;;7.22;;
8337;SDS011;4206;48.634;9.516;2023-09-12T10:11:27;11.65;;;7.45;;
8337;SDS011;4206;48.634;9.516;2023-09-12T10:14:00;10.32;;;7.05;;
8337;SDS011;4206;48.634;9.516;2023-09-12T10:16:32;11.18;;;8.05;;
8337;SDS011;4206;48.634;9.516;2023-09-12T10:19:10;9.80;;;7.00;;
8337;SDS011;4206;48.634;9.516;2023-09-12T10:21:44;9.45;;;7.07;;
8337;SDS011;4206;48.634;9.516;2023-09-12T10:24:17;6.90;;;6.20;;
8337;SDS011;4206;48.634;9.516;2023-09-12T10:26:48;9.90;;;6.93;;
8337;SDS011;4206;48.634;9.516;2023-09-12T10:29:17;7.45;;;6.63;;
8337;SDS011;4206;48.634;9.516;2023-09-12T10:31:44;8.07;;;6.82;;
8337;SDS011;4206;48.634;9.516;2023-09-12T10:37:48;10.15;;;6.57;;
8337;SDS011;4206;48.634;9.516;2023-09-12T10:40:18;7.95;;;7.15;;
8337;SDS011;4206;48.634;9.516;2023-09-12T10:42:47;9.32;;;7.13;;
8337;SDS011;4206;48.634;9.516;2023-09-12T10:45:16;8.02;;;6.70;;
8337;SDS011;4206;48.634;9.516;2023-09-12T10:47:44;11.00;;;7.05;;
8337;SDS011;4206;48.634;9.516;2023-09-12T10:50:12;11.32;;;7.20;;
8337;SDS011;4206;48.634;9.516;2023-09-12T10:52:41;9.00;;;6.72;;
8337;SDS011;4206;48.634;9.516;2023-09-12T10:55:14;7.30;;;6.60;;
8337;SDS011;4206;48.634;9.516;2023-09-12T11:00:33;7.97;;;6.53;;
8337;SDS011;4206;48.634;9.516;2023-09-12T11:05:58;7.78;;;6.53;;
8337;SDS011;4206;48.634;9.516;2023-09-12T11:08:27;7.30;;;6.32;;
8337;SDS011;4206;48.634;9.516;2023-09-12T11:11:16;10.52;;;6.88;;
8337;SDS011;4206;48.634;9.516;2023-09-12T11:13:45;6.20;;;5.60;;
8337;SDS011;4206;48.634;9.516;2023-09-12T11:16:13;8.07;;;6.20;;
8337;SDS011;4206;48.634;9.516;2023-09-12T11:21:46;8.85;;;6.50;;
8337;SDS011;4206;48.634;9.516;2023-09-12T11:24:14;12.23;;;6.32;;
8337;SDS011;4206;48.634;9.516;2023-09-12T11:29:27;8.63;;;6.53;;
8337;SDS011;4206;48.634;9.516;2023-09-12T11:32:02;10.38;;;6.43;;
8337;SDS011;4206;48.634;9.516;2023-09-12T11:34:36;6.93;;;6.03;;
8337;SDS011;4206;48.634;9.516;2023-09-12T11:37:05;9.82;;;7.05;;
8337;SDS011;4206;48.634;9.516;2023-09-12T11:39:32;6.70;;;5.90;;
8337;SDS011;4206;48.634;9.516;2023-09-12T11:42:01;7.00;;;6.00;;
8337;SDS011;4206;48.634;9.516;2023-09-12T11:44:31;6.80;;;5.93;;
8337;SDS011;4206;48.634;9.516;2023-09-12T11:47:00;7.38;;;5.88;;
8337;SDS011;4206;48.634;9.516;2023-09-12T11:49:36;7.28;;;5.93;;
8337;SDS011;4206;48.634;9.516;2023-09-12T11:54:51;7.03;;;5.85;;
8337;SDS011;4206;48.634;9.516;2023-09-12T11:57:20;10.85;;;6.28;;
8337;SDS011;4206;48.634;9.516;2023-09-12T11:59:48;6.05;;;5.53;;
8337;SDS011;4206;48.634;9.516;2023-09-12T12:02:16;6.78;;;5.95;;
8337;SDS011;4206;48.634;9.516;2023-09-12T12:04:43;9.15;;;5.78;;
8337;SDS011;4206;48.634;9.516;2023-09-12T12:07:11;8.35;;;6.78;;
8337;SDS011;4206;48.634;9.516;2023-09-12T12:09:39;8.82;;;5.80;;
8337;SDS011;4206;48.634;9.516;2023-09-12T12:12:13;7.55;;;6.05;;
8337;SDS011;4206;48.634;9.516;2023-09-12T12:14:41;9.75;;;6.22;;
8337;SDS011;4206;48.634;9.516;2023-09-12T12:17:10;8.07;;;5.90;;
8337;SDS011;4206;48.634;9.516;2023-09-12T12:19:38;5.93;;;5.32;;
8337;SDS011;4206;48.634;9.516;2023-09-12T12:22:06;8.57;;;6.22;;
8337;SDS011;4206;48.634;9.516;2023-09-12T12:24:38;7.05;;;5.93;;
8337;SDS011;4206;48.634;9.516;2023-09-12T12:27:07;6.50;;;6.00;;
8337;SDS011;4206;48.634;9.516;2023-09-12T12:29:36;10.38;;;6.28;;
8337;SDS011;4206;48.634;9.516;2023-09-12T12:32:06;7.22;;;5.45;;
8337;SDS011;4206;48.634;9.516;2023-09-12T12:34:36;8.75;;;6.18;;
8337;SDS011;4206;48.634;9.516;2023-09-12T12:37:31;6.75;;;5.40;;
8337;SDS011;4206;48.634;9.516;2023-09-12T12:39:58;6.00;;;5.50;;
8337;SDS011;4206;48.634;9.516;2023-09-12T12:42:32;6.40;;;5.90;;
8337;SDS011;4206;48.634;9.516;2023-09-12T12:45:17;10.55;;;6.28;;
8337;SDS011;4206;48.634;9.516;2023-09-12T12:47:45;6.53;;;5.93;;
8337;SDS011;4206;48.634;9.516;2023-09-12T12:50:13;8.68;;;6.75;;
8337;SDS011;4206;48.634;9.516;2023-09-12T12:52:45;9.25;;;6.07;;
8337;SDS011;4206;48.634;9.516;2023-09-12T12:55:14;7.72;;;6.25;;
8337;SDS011;4206;48.634;9.516;2023-09-12T12:57:47;7.10;;;6.53;;
8337;SDS011;4206;48.634;9.516;2023-09-12T13:00:17;7.20;;;6.32;;
8337;SDS011;4206;48.634;9.516;2023-09-12T13:02:45;7.70;;;6.18;;
8337;SDS011;4206;48.634;9.516;2023-09-12T13:05:21;6.53;;;6.03;;
8337;SDS011;4206;48.634;9.516;2023-09-12T13:07:49;6.85;;;6.25;;
8337;SDS011;4206;48.634;9.516;2023-09-12T13:10:16;7.38;;;6.68;;
8337;SDS011;4206;48.634;9.516;2023-09-12T13:12:44;6.88;;;5.85;;
8337;SDS011;4206;48.634;9.516;2023-09-12T13:15:12;6.03;;;5.43;;
8337;SDS011;4206;48.634;9.516;2023-09-12T13:17:41;6.72;;;5.45;;
8337;SDS011;4206;48.634;9.516;2023-09-12T13:20:09;7.40;;;6.70;;
8337;SDS011;4206;48.634;9.516;2023-09-12T13:22:36;7.72;;;6.20;;
8337;SDS011;4206;48.634;9.516;2023-09-12T13:25:04;7.60;;;5.60;;
8337;SDS011;4206;48.634;9.516;2023-09-12T13:27:32;11.50;;;6.18;;
8337;SDS011;4206;48.634;9.516;2023-09-12T13:30:00;6.35;;;5.72;;
8337;SDS011;4206;48.634;9.516;2023-09-12T13:32:27;8.35;;;6.10;;
8337;SDS011;4206;48.634;9.516;2023-09-12T13:34:54;8.15;;;5.80;;
8337;SDS011;4206;48.634;9.516;2023-09-12T13:37:23;7.85;;;6.22;;
8337;SDS011;4206;48.634;9.516;2023-09-12T13:39:51;5.80;;;5.30;;
8337;SDS011;4206;48.634;9.516;2023-09-12T13:42:18;6.00;;;5.55;;
8337;SDS011;4206;48.634;9.516;2023-09-12T13:44:46;6.38;;;5.85;;
8337;SDS011;4206;48.634;9.516;2023-09-12T13:47:14;5.55;;;5.07;;
8337;SDS011;4206;48.634;9.516;2023-09-12T13:49:49;6.30;;;5.35;;
8337;SDS011;4206;48.634;9.516;2023-09-12T13:52:28;7.22;;;5.50;;
8337;SDS011;4206;48.634;9.516;2023-09-12T13:54:55;6.20;;;5.60;;
8337;SDS011;4206;48.634;9.516;2023-09-12T13:57:24;7.78;;;5.68;;
8337;SDS011;4206;48.634;9.516;2023-09-12T13:59:51;9.75;;;5.72;;
8337;SDS011;4206;48.634;9.516;2023-09-12T14:02:19;8.55;;;6.32;;
8337;SDS011;4206;48.634;9.516;2023-09-12T14:04:46;8.63;;;5.32;;
8337;SDS011;4206;48.634;9.516;2023-09-12T14:07:20;9.00;;;6.28;;
8337;SDS011;4206;48.634;9.516;2023-09-12T14:09:48;7.35;;;5.25;;
8337;SDS011;4206;48.634;9.516;2023-09-12T14:12:26;7.35;;;5.72;;
8337;SDS011;4206;48.634;9.516;2023-09-12T14:15:42;8.77;;;5.72;;
8337;SDS011;4206;48.634;9.516;2023-09-12T14:18:43;7.30;;;5.65;;
8337;SDS011;4206;48.634;9.516;2023-09-12T14:21:29;7.10;;;5.70;;
8337;SDS011;4206;48.634;9.516;2023-09-12T14:23:57;10.00;;;6.28;;
8337;SDS011;4206;48.634;9.516;2023-09-12T14:26:30;9.25;;;6.60;;
8337;SDS011;4206;48.634;9.516;2023-09-12T14:28:58;9.43;;;6.00;;
8337;SDS011;4206;48.634;9.516;2023-09-12T14:31:25;7.15;;;5.90;;
8337;SDS011;4206;48.634;9.516;2023-09-12T14:33:52;9.02;;;5.63;;
8337;SDS011;4206;48.634;9.516;2023-09-12T14:36:20;8.27;;;6.50;;
8337;SDS011;4206;48.634;9.516;2023-09-12T14:38:47;14.90;;;6.20;;
8337;SDS011;4206;48.634;9.516;2023-09-12T14:41:14;10.50;;;6.15;;
8337;SDS011;4206;48.634;9.516;2023-09-12T14:43:40;6.45;;;5.85;;
8337;SDS011;4206;48.634;9.516;2023-09-12T14:46:08;8.13;;;6.05;;
8337;SDS011;4206;48.634;9.516;2023-09-12T14:48:36;8.27;;;5.82;;
8337;SDS011;4206;48.634;9.516;2023-09-12T14:51:09;11.18;;;6.20;;
8337;SDS011;4206;48.634;9.516;2023-09-12T14:53:37;8.63;;;6.03;;
8337;SDS011;4206;48.634;9.516;2023-09-12T14:56:10;8.70;;;5.90;;
8337;SDS011;4206;48.634;9.516;2023-09-12T14:58:37;13.65;;;6.05;;
8337;SDS011;4206;48.634;9.516;2023-09-12T15:01:05;6.40;;;5.70;;
8337;SDS011;4206;48.634;9.516;2023-09-12T15:03:32;7.90;;;5.78;;
8337;SDS011;4206;48.634;9.516;2023-09-12T15:06:04;8.63;;;6.35;;
8337;SDS011;4206;48.634;9.516;2023-09-12T15:08:33;9.02;;;6.32;;
8337;SDS011;4206;48.634;9.516;2023-09-12T15:11:02;6.55;;;5.95;;
8337;SDS011;4206;48.634;9.516;2023-09-12T15:13:31;9.75;;;7.15;;
8337;SDS011;4206;48.634;9.516;2023-09-12T15:15:59;8.67;;;6.23;;
8337;SDS011;4206;48.634;9.516;2023-09-12T15:18:26;13.23;;;6.65;;
8337;SDS011;4206;48.634;9.516;2023-09-12T15:20:53;7.27;;;5.30;;
8337;SDS011;4206;48.634;9.516;2023-09-12T15:23:20;6.85;;;5.90;;
8337;SDS011;4206;48.634;9.516;2023-09-12T15:25:49;14.17;;;6.70;;
8337;SDS011;4206;48.634;9.516;2023-09-12T15:28:16;8.93;;;6.47;;
8337;SDS011;4206;48.634;9.516;2023-09-12T15:30:44;8.63;;;6.67;;
8337;SDS011;4206;48.634;9.516;2023-09-12T15:33:11;10.13;;;6.50;;
8337;SDS011;4206;48.634;9.516;2023-09-12T15:35:38;9.93;;;6.70;;
8337;SDS011;4206;48.634;9.516;2023-09-12T15:38:05;9.20;;;6.67;;
8337;SDS011;4206;48.634;9.516;2023-09-12T15:40:32;8.90;;;6.83;;
8337;SDS011;4206;48.634;9.516;2023-09-12T15:43:00;16.80;;;7.10;;
8337;SDS011;4206;48.634;9.516;2023-09-12T15:45:46;7.40;;;6.30;;
8337;SDS011;4206;48.634;9.516;2023-09-12T15:48:17;9.10;;;6.47;;